createdAt,value
2023-05-04T00:00:04.478Z,1026.88
2023-05-04T00:05:03.500Z,1026.84
2023-05-04T00:10:04.402Z,1026.76
2023-05-04T00:15:03.136Z,1026.72
2023-05-04T00:20:04.342Z,1026.76
2023-05-04T00:25:03.797Z,1026.74
2023-05-04T00:30:04.500Z,1026.76
2023-05-04T00:35:02.994Z,1026.58
2023-05-04T00:40:04.902Z,1026.62
2023-05-04T00:45:03.402Z,1026.55
2023-05-04T00:50:04.691Z,1026.57
2023-05-04T00:55:03.546Z,1026.56
2023-05-04T01:00:04.166Z,1026.58
2023-05-04T01:05:02.862Z,1026.64
2023-05-04T01:10:05.050Z,1026.53
2023-05-04T01:15:04.036Z,1026.47
2023-05-04T01:20:04.868Z,1026.47
2023-05-04T01:25:03.520Z,1026.54
2023-05-04T01:30:04.764Z,1026.43
2023-05-04T01:35:03.006Z,1026.39
2023-05-04T01:40:04.138Z,1026.55
2023-05-04T01:45:03.587Z,1026.44
2023-05-04T01:50:04.426Z,1026.55
2023-05-04T01:55:03.661Z,1026.53
2023-05-04T02:00:05.252Z,1026.5
2023-05-04T02:05:03.756Z,1026.52
2023-05-04T02:10:04.569Z,1026.5
2023-05-04T02:15:03.313Z,1026.44
2023-05-04T02:20:04.184Z,1026.5
2023-05-04T02:25:03.163Z,1026.49
2023-05-04T02:30:04.200Z,1026.46
2023-05-04T02:35:03.952Z,1026.48
2023-05-04T02:40:04.765Z,1026.44
2023-05-04T02:45:03.466Z,1026.46
2023-05-04T02:50:05.056Z,1026.57
2023-05-04T02:55:02.784Z,1026.53
2023-05-04T03:00:04.773Z,1026.4
2023-05-04T03:05:03.348Z,1026.36
2023-05-04T03:10:03.531Z,1026.41
2023-05-04T03:15:02.854Z,1026.34
2023-05-04T03:20:05.066Z,1026.38
2023-05-04T03:25:03.648Z,1026.37
2023-05-04T03:30:04.621Z,1026.44
2023-05-04T03:35:04.794Z,1026.4
2023-05-04T03:40:04.329Z,1026.41
2023-05-04T03:45:04.998Z,1026.42
2023-05-04T03:50:04.362Z,1026.4
2023-05-04T03:55:03.862Z,1026.4
2023-05-04T04:00:04.518Z,1026.39
2023-05-04T04:05:03.306Z,1026.43
2023-05-04T04:10:04.030Z,1026.42
2023-05-04T04:15:03.892Z,1026.5
2023-05-04T04:20:04.552Z,1026.35
2023-05-04T04:25:03.348Z,1026.39
2023-05-04T04:30:03.548Z,1026.35
2023-05-04T04:35:03.070Z,1026.36
2023-05-04T04:40:04.307Z,1026.29
2023-05-04T04:45:03.279Z,1026.3
2023-05-04T04:50:03.896Z,1026.37
2023-05-04T04:55:04.064Z,1026.33
2023-05-04T05:00:04.328Z,1026.31
2023-05-04T05:05:03.544Z,1026.25
2023-05-04T05:10:03.577Z,1026.33
2023-05-04T05:15:03.669Z,1026.18
2023-05-04T05:20:04.626Z,1026.15
2023-05-04T05:25:03.162Z,1026.19
2023-05-04T05:30:04.187Z,1026.21
2023-05-04T05:35:03.779Z,1026.28
2023-05-04T05:40:04.564Z,1026.17
2023-05-04T05:45:03.267Z,1026.1
2023-05-04T05:50:04.046Z,1026.23
2023-05-04T05:55:03.706Z,1026.25
2023-05-04T06:00:04.649Z,1026.15
2023-05-04T06:05:04.217Z,1026.11
2023-05-04T06:10:03.765Z,1026.16
2023-05-04T06:15:03.707Z,1026.19
2023-05-04T06:20:04.738Z,1026.15
2023-05-04T06:25:08.930Z,1025.95
2023-05-04T06:30:03.084Z,1025.98
2023-05-04T06:35:03.699Z,1025.88
2023-05-04T06:40:03.379Z,1025.88
2023-05-04T06:45:03.322Z,1025.83
2023-05-04T06:50:04.122Z,1025.81
2023-05-04T06:55:03.184Z,1025.79
2023-05-04T07:00:04.599Z,1025.78
2023-05-04T07:05:03.705Z,1025.88
2023-05-04T07:10:04.778Z,1025.88
2023-05-04T07:15:03.145Z,1025.89
2023-05-04T07:20:04.431Z,1025.99
2023-05-04T07:25:03.916Z,1026.03
2023-05-04T07:30:04.753Z,1026
2023-05-04T07:35:03.788Z,1025.99
2023-05-04T07:40:04.449Z,1025.96
2023-05-04T07:45:03.218Z,1026.01
2023-05-04T07:55:03.879Z,1025.87
2023-05-04T08:00:04.620Z,1026.01
2023-05-04T08:05:03.133Z,1025.93
2023-05-04T08:15:03.652Z,1025.99
2023-05-04T08:20:03.226Z,1025.98
2023-05-04T08:25:04.041Z,1025.76
2023-05-04T08:30:02.940Z,1025.77
2023-05-04T08:35:04.709Z,1025.67
2023-05-04T08:40:03.448Z,1025.68
2023-05-04T08:45:04.142Z,1025.64
2023-05-04T08:50:02.942Z,1025.61
2023-05-04T08:55:05.485Z,1025.55
2023-05-04T09:00:03.378Z,1025.51
2023-05-04T09:05:04.324Z,1025.51
2023-05-04T09:10:03.110Z,1025.51
2023-05-04T09:15:04.035Z,1025.51
2023-05-04T09:20:04.191Z,1025.37
2023-05-04T09:25:04.706Z,1025.26
2023-05-04T09:30:03.687Z,1025.29
2023-05-04T09:35:04.576Z,1025.25
2023-05-04T09:40:03.299Z,1025.19
2023-05-04T09:45:05.567Z,1025.21
2023-05-04T09:50:04.184Z,1025.11
2023-05-04T09:55:04.862Z,1025.17
2023-05-04T10:00:02.928Z,1025.1
2023-05-04T10:05:05.042Z,1025.05
2023-05-04T10:10:03.665Z,1024.97
2023-05-04T10:15:04.105Z,1024.87
2023-05-04T10:20:03.274Z,1024.7
2023-05-04T10:25:04.036Z,1024.64
2023-05-04T10:30:02.917Z,1024.65
2023-05-04T10:35:05.207Z,1024.71
2023-05-04T10:40:04.104Z,1024.57
2023-05-04T10:45:04.299Z,1024.48
2023-05-04T10:50:03.186Z,1024.45
2023-05-04T10:55:03.214Z,1024.4
2023-05-04T11:00:03.784Z,1024.27
2023-05-04T11:05:04.872Z,1024.2
2023-05-04T11:10:03.204Z,1024.23
2023-05-04T11:15:03.894Z,1024.16
2023-05-04T11:20:03.131Z,1024.1
2023-05-04T11:25:03.633Z,1024.09
2023-05-04T11:30:03.593Z,1024.03
2023-05-04T11:35:04.882Z,1023.96
2023-05-04T11:40:03.114Z,1023.86
2023-05-04T11:45:03.631Z,1023.76
2023-05-04T11:50:03.597Z,1023.71
2023-05-04T11:55:03.732Z,1023.69
2023-05-04T12:00:02.986Z,1023.61
2023-05-04T12:05:04.112Z,1023.69
2023-05-04T12:10:03.522Z,1023.6
2023-05-04T12:15:03.205Z,1023.51
2023-05-04T12:20:03.175Z,1023.59
2023-05-04T12:25:03.007Z,1023.53
2023-05-04T12:30:03.137Z,1023.5
2023-05-04T12:35:03.266Z,1023.49
2023-05-04T12:40:29.033Z,1023.4
2023-05-04T12:45:02.985Z,1023.4
2023-05-04T12:50:03.779Z,1023.37
2023-05-04T12:55:04.462Z,1023.23
2023-05-04T13:00:03.451Z,1023.19
2023-05-04T13:05:03.406Z,1023.22
2023-05-04T13:10:03.293Z,1023.2
2023-05-04T13:15:03.125Z,1023.12
2023-05-04T13:20:03.009Z,1023.01
2023-05-04T13:25:03.965Z,1022.93
2023-05-04T13:30:03.633Z,1022.85
2023-05-04T13:35:03.473Z,1022.79
2023-05-04T13:40:03.391Z,1022.68
2023-05-04T13:45:02.976Z,1022.65
2023-05-04T13:50:03.853Z,1022.6
2023-05-04T13:55:03.649Z,1022.59
2023-05-04T14:00:09.373Z,1022.51
2023-05-04T14:05:03.275Z,1022.38
2023-05-04T14:10:03.013Z,1022.23
2023-05-04T14:15:03.047Z,1022.27
2023-05-04T14:20:03.729Z,1022.19
2023-05-04T14:25:03.634Z,1022.1
2023-05-04T14:30:04.293Z,1022.12
2023-05-04T14:35:03.102Z,1022.06
2023-05-04T14:40:02.846Z,1021.97
2023-05-04T14:45:02.863Z,1021.95
2023-05-04T14:50:03.080Z,1021.91
2023-05-04T14:55:04.082Z,1021.95
2023-05-04T15:00:03.365Z,1021.89
2023-05-04T15:05:03.087Z,1021.76
2023-05-04T15:10:02.862Z,1021.68
2023-05-04T15:15:03.641Z,1021.65
2023-05-04T15:20:03.515Z,1021.6
2023-05-04T15:25:03.264Z,1021.57
2023-05-04T15:30:03.109Z,1021.49
2023-05-04T15:35:07.082Z,1021.48
2023-05-04T15:40:03.813Z,1021.4
2023-05-04T15:45:03.939Z,1021.43
2023-05-04T15:50:04.201Z,1021.31
2023-05-04T16:00:03.255Z,1021.28
2023-05-04T16:05:02.915Z,1021.27
2023-05-04T16:10:03.213Z,1021.19
2023-05-04T16:15:02.926Z,1021.1
2023-05-04T16:20:04.090Z,1021.1
2023-05-04T16:25:03.374Z,1021.03
2023-05-04T16:30:03.162Z,1021.05
2023-05-04T16:35:03.342Z,1020.95
2023-05-04T16:40:03.093Z,1020.81
2023-05-04T16:45:03.126Z,1020.81
2023-05-04T16:50:02.929Z,1020.61
2023-05-04T16:55:03.699Z,1020.65
2023-05-04T17:00:03.744Z,1020.64
2023-05-04T17:05:03.397Z,1020.59
2023-05-04T17:10:03.123Z,1020.53
2023-05-04T17:15:03.294Z,1020.54
2023-05-04T17:20:03.400Z,1020.39
2023-05-04T17:25:03.178Z,1020.3
2023-05-04T17:30:02.964Z,1020.36
2023-05-04T17:35:26.901Z,1020.47
2023-05-04T17:40:02.924Z,1020.46
2023-05-04T17:45:03.522Z,1020.44
2023-05-04T17:50:03.574Z,1020.45
2023-05-04T17:55:03.073Z,1020.49
2023-05-04T18:00:03.059Z,1020.49
2023-05-04T18:05:02.789Z,1020.46
2023-05-04T18:10:03.681Z,1020.56
2023-05-04T18:15:03.764Z,1020.58
2023-05-04T18:20:03.579Z,1020.57
2023-05-04T18:25:03.283Z,1020.66
2023-05-04T18:30:03.263Z,1020.63
2023-05-04T18:35:03.049Z,1020.73
2023-05-04T18:40:02.934Z,1020.71
2023-05-04T18:45:03.657Z,1020.83
2023-05-04T18:50:03.343Z,1020.84
2023-05-04T18:55:02.935Z,1020.87
2023-05-04T19:00:03.472Z,1020.82
2023-05-04T19:05:03.040Z,1020.78
2023-05-04T19:10:02.959Z,1020.84
2023-05-04T19:15:03.654Z,1020.81
2023-05-04T19:20:03.491Z,1020.82
2023-05-04T19:25:03.336Z,1020.87
2023-05-04T19:30:03.343Z,1020.86
2023-05-04T19:35:03.788Z,1020.88
2023-05-04T19:40:03.527Z,1020.92
2023-05-04T19:45:03.427Z,1020.81
2023-05-04T19:50:03.184Z,1020.87
2023-05-04T19:55:02.928Z,1020.92
2023-05-04T20:00:03.243Z,1020.98
2023-05-04T20:05:03.713Z,1020.92
2023-05-04T20:10:03.631Z,1020.94
2023-05-04T20:15:03.361Z,1020.88
2023-05-04T20:20:02.973Z,1020.89
2023-05-04T20:25:03.878Z,1020.91
2023-05-04T20:30:03.542Z,1020.91
2023-05-04T20:35:03.274Z,1020.88
2023-05-04T20:40:03.186Z,1020.87
2023-05-04T20:45:03.061Z,1020.82
2023-05-04T20:50:03.703Z,1020.77
2023-05-04T20:55:03.388Z,1020.78
2023-05-04T21:00:03.712Z,1020.6
2023-05-04T21:05:03.378Z,1020.53
2023-05-04T21:10:03.367Z,1020.49
2023-05-04T21:15:02.990Z,1020.45
2023-05-04T21:20:03.764Z,1020.37
2023-05-04T21:25:03.329Z,1020.43
2023-05-04T21:30:03.121Z,1020.35
2023-05-04T21:35:02.857Z,1020.28
2023-05-04T21:40:03.851Z,1020.38
2023-05-04T21:45:03.704Z,1020.31
2023-05-04T21:50:03.388Z,1020.26
2023-05-04T21:55:03.622Z,1020.36
2023-05-04T22:00:03.249Z,1020.33
2023-05-04T22:05:03.449Z,1020.23
2023-05-04T22:10:02.999Z,1020.32
2023-05-04T22:15:03.662Z,1020.32
2023-05-04T22:20:03.627Z,1020.22
2023-05-04T22:25:03.104Z,1020.19
2023-05-04T22:30:02.884Z,1020.22
2023-05-04T22:35:03.578Z,1020.14
2023-05-04T22:40:03.584Z,1020.22
2023-05-04T22:45:03.716Z,1020.17
2023-05-04T22:50:03.516Z,1020.11
2023-05-04T22:55:04.283Z,1020.17
2023-05-04T23:00:03.472Z,1020.13
2023-05-04T23:05:03.212Z,1020.07
2023-05-04T23:10:02.887Z,1020.02
2023-05-04T23:15:02.865Z,1020.1
2023-05-04T23:20:03.814Z,1020.08
2023-05-04T23:25:03.245Z,1020
2023-05-04T23:30:03.299Z,1020
2023-05-04T23:35:03.070Z,1020.09
2023-05-04T23:40:02.909Z,1020.07
2023-05-04T23:45:03.637Z,1020.07
2023-05-04T23:50:03.437Z,1020.09
2023-05-04T23:55:03.259Z,1020.02
